Time;durP1;ratioP1;P1;durP2;ratioP2;P2;SDS_P1;SDS_P2;PMS_P1;PMS_P2;Temp;Humidity;BMP_temperature;BMP_pressure;BME280_temperature;BME280_humidity;BME280_pressure;Samples;Min_cycle;Max_cycle;Signal;HPM_P1;HPM_P2
2024/03/14 00:00:46;;;;;;;12.90;7.95;;;;;;;;;;5064750;28;20090;-54
2024/03/14 00:03:12;;;;;;;12.65;7.40;;;;;;;;;;5048563;28;20055;-58
2024/03/14 00:05:38;;;;;;;12.60;7.40;;;;;;;;;;5026064;28;20124;-54
2024/03/14 00:08:05;;;;;;;13.10;7.78;;;;;;;;;;5044604;28;20027;-52
2024/03/14 00:10:31;;;;;;;13.00;8.50;;;;;;;;;;5047252;28;20060;-53
2024/03/14 00:12:57;;;;;;;12.80;7.50;;;;;;;;;;5029779;28;20030;-52
2024/03/14 00:15:23;;;;;;;12.43;7.20;;;;;;;;;;5048712;28;20090;-48
2024/03/14 00:17:49;;;;;;;13.50;9.05;;;;;;;;;;5048022;28;20375;-54
2024/03/14 00:20:15;;;;;;;12.70;7.50;;;;;;;;;;5048370;28;20033;-53
2024/03/14 00:22:41;;;;;;;12.68;7.38;;;;;;;;;;5047582;28;20029;-52
2024/03/14 00:25:12;;;;;;;13.10;7.70;;;;;;;;;;5047862;28;20685;-57
2024/03/14 00:27:44;;;;;;;12.45;7.25;;;;;;;;;;5048022;28;20056;-56
2024/03/14 00:30:11;;;;;;;12.30;7.20;;;;;;;;;;5047603;28;20017;-55
2024/03/14 00:32:37;;;;;;;13.15;8.15;;;;;;;;;;5047406;28;20040;-56
2024/03/14 00:35:03;;;;;;;12.73;7.40;;;;;;;;;;5054358;28;20093;-55
2024/03/14 00:37:30;;;;;;;12.38;7.20;;;;;;;;;;5070689;28;20032;-55
2024/03/14 00:39:56;;;;;;;12.65;7.38;;;;;;;;;;5070997;28;20033;-51
2024/03/14 00:45:00;;;;;;;;;;;;;;;;;;5071903;28;20476;-52
2024/03/14 00:47:29;;;;;;;12.80;7.47;;;;;;;;;;5072778;28;19947;-58
2024/03/14 00:49:55;;;;;;;15.85;8.20;;;;;;;;;;5054779;28;20150;-54
2024/03/14 00:52:21;;;;;;;13.13;7.80;;;;;;;;;;5053915;28;20706;-55
2024/03/14 00:54:47;;;;;;;13.18;7.72;;;;;;;;;;5054509;28;20028;-56
2024/03/14 00:57:13;;;;;;;14.43;9.50;;;;;;;;;;5072190;28;20044;-55
2024/03/14 00:59:39;;;;;;;13.00;7.68;;;;;;;;;;5072423;28;20032;-56
2024/03/14 01:02:06;;;;;;;12.90;7.60;;;;;;;;;;5072168;28;20035;-57
2024/03/14 01:04:32;;;;;;;12.88;7.50;;;;;;;;;;5072240;28;20107;-56
2024/03/14 01:06:58;;;;;;;12.80;7.40;;;;;;;;;;5073010;28;20116;-57
2024/03/14 01:09:27;;;;;;;13.20;8.10;;;;;;;;;;5072749;28;20028;-58
2024/03/14 01:11:53;;;;;;;13.55;8.35;;;;;;;;;;5072321;28;20028;-52
2024/03/14 01:14:20;;;;;;;13.02;7.60;;;;;;;;;;5072122;28;20029;-53
2024/03/14 01:16:47;;;;;;;12.90;7.53;;;;;;;;;;5072561;28;20099;-58
2024/03/14 01:19:13;;;;;;;12.98;7.60;;;;;;;;;;5072566;28;20025;-53
2024/03/14 01:21:39;;;;;;;12.85;7.50;;;;;;;;;;5053284;28;20051;-54
2024/03/14 01:24:05;;;;;;;13.13;8.00;;;;;;;;;;5071775;28;20029;-52
2024/03/14 01:26:32;;;;;;;13.10;7.70;;;;;;;;;;5072431;28;20103;-53
2024/03/14 01:28:58;;;;;;;13.15;7.80;;;;;;;;;;5072353;28;20363;-51
2024/03/14 01:31:24;;;;;;;14.35;8.57;;;;;;;;;;5072207;28;20092;-56
2024/03/14 01:33:51;;;;;;;12.48;7.28;;;;;;;;;;5071561;28;20047;-51
2024/03/14 01:36:17;;;;;;;12.70;7.43;;;;;;;;;;5072170;28;20039;-53
2024/03/14 01:38:43;;;;;;;13.00;7.65;;;;;;;;;;5072080;28;20032;-55
2024/03/14 01:41:19;;;;;;;12.80;7.40;;;;;;;;;;5071762;28;20035;-55
2024/03/14 01:43:59;;;;;;;12.95;7.60;;;;;;;;;;5071103;28;20037;-53
2024/03/14 01:46:27;;;;;;;13.10;7.68;;;;;;;;;;5071887;28;20386;-56
2024/03/14 01:48:53;;;;;;;12.88;7.45;;;;;;;;;;5071606;28;20043;-54
2024/03/14 01:51:19;;;;;;;12.88;7.60;;;;;;;;;;5071491;28;20033;-55
2024/03/14 01:53:45;;;;;;;12.43;7.22;;;;;;;;;;5053177;28;20039;-52
2024/03/14 01:56:12;;;;;;;12.63;7.32;;;;;;;;;;5053676;28;20410;-53
2024/03/14 01:58:39;;;;;;;13.00;7.68;;;;;;;;;;5071515;28;20078;-53
2024/03/14 02:01:05;;;;;;;12.88;7.60;;;;;;;;;;5053310;28;20112;-51
2024/03/14 02:03:31;;;;;;;13.32;8.10;;;;;;;;;;5053007;28;20024;-49
2024/03/14 02:06:07;;;;;;;13.80;9.25;;;;;;;;;;5053735;28;20685;-52
2024/03/14 02:08:34;;;;;;;13.50;8.40;;;;;;;;;;5053591;28;20027;-52
2024/03/14 02:11:01;;;;;;;13.27;7.70;;;;;;;;;;5071337;28;20020;-53
2024/03/14 02:13:27;;;;;;;12.80;7.60;;;;;;;;;;5070612;28;20386;-56
2024/03/14 02:15:53;;;;;;;12.75;7.50;;;;;;;;;;5071312;28;20020;-51
2024/03/14 02:18:19;;;;;;;13.10;7.60;;;;;;;;;;5071255;28;20044;-54
2024/03/14 02:20:46;;;;;;;12.90;7.50;;;;;;;;;;5053277;28;20130;-54
2024/03/14 02:23:12;;;;;;;12.95;7.60;;;;;;;;;;5052674;28;20029;-55
2024/03/14 02:25:38;;;;;;;13.27;7.78;;;;;;;;;;5071341;28;20497;-52
2024/03/14 02:28:04;;;;;;;13.30;7.90;;;;;;;;;;5071017;28;20127;-55
2024/03/14 02:30:30;;;;;;;12.93;7.72;;;;;;;;;;5071187;28;20025;-53
2024/03/14 02:32:56;;;;;;;12.90;7.50;;;;;;;;;;5069226;28;20025;-50
2024/03/14 02:35:22;;;;;;;13.05;7.60;;;;;;;;;;5070998;28;20027;-52
2024/03/14 02:37:49;;;;;;;13.15;8.38;;;;;;;;;;5070997;28;20020;-56
2024/03/14 02:40:14;;;;;;;12.90;7.60;;;;;;;;;;5070736;28;20032;-54
2024/03/14 02:42:40;;;;;;;13.40;7.85;;;;;;;;;;5069855;28;20705;-57
2024/03/14 02:45:07;;;;;;;12.93;7.53;;;;;;;;;;5070604;28;20024;-51
2024/03/14 02:47:33;;;;;;;13.30;8.10;;;;;;;;;;5070711;28;20055;-55
2024/03/14 02:49:59;;;;;;;13.20;7.70;;;;;;;;;;5070405;28;20060;-55
2024/03/14 02:52:26;;;;;;;12.85;7.55;;;;;;;;;;5069541;28;20051;-53
2024/03/14 02:54:52;;;;;;;12.90;7.50;;;;;;;;;;5070435;28;20036;-55
2024/03/14 02:57:18;;;;;;;15.77;8.95;;;;;;;;;;5070391;28;20028;-51
2024/03/14 02:59:44;;;;;;;12.82;7.50;;;;;;;;;;5052693;28;20485;-52
2024/03/14 03:02:11;;;;;;;12.73;7.35;;;;;;;;;;5069972;28;20490;-53
2024/03/14 03:04:40;;;;;;;12.70;7.40;;;;;;;;;;5070108;28;20063;-51
2024/03/14 03:07:06;;;;;;;12.75;7.38;;;;;;;;;;5070371;28;20496;-51
2024/03/14 03:09:35;;;;;;;15.57;8.50;;;;;;;;;;5052664;28;20028;-50
2024/03/14 03:12:02;;;;;;;13.10;7.70;;;;;;;;;;5070121;28;20017;-54
2024/03/14 03:14:28;;;;;;;13.23;7.72;;;;;;;;;;5052100;28;20036;-49
2024/03/14 03:16:54;;;;;;;13.05;7.63;;;;;;;;;;5052597;28;20025;-54
2024/03/14 03:19:20;;;;;;;13.35;7.90;;;;;;;;;;5070034;28;20528;-54
2024/03/14 03:21:46;;;;;;;13.30;8.15;;;;;;;;;;5070724;28;20028;-53
2024/03/14 03:24:12;;;;;;;12.90;7.50;;;;;;;;;;5070041;28;20082;-54
2024/03/14 03:26:40;;;;;;;12.77;7.50;;;;;;;;;;5052473;28;20379;-55
2024/03/14 03:29:07;;;;;;;13.10;7.68;;;;;;;;;;5052415;28;20056;-51
2024/03/14 03:31:32;;;;;;;13.40;7.88;;;;;;;;;;5070535;28;20060;-54
2024/03/14 03:33:59;;;;;;;12.80;7.45;;;;;;;;;;5069958;28;20059;-53
2024/03/14 03:36:26;;;;;;;12.85;7.47;;;;;;;;;;5070455;28;20029;-55
2024/03/14 03:38:52;;;;;;;13.05;7.68;;;;;;;;;;5070485;28;20050;-51
2024/03/14 03:41:23;;;;;;;13.25;7.70;;;;;;;;;;5070021;28;20032;-56
2024/03/14 03:43:49;;;;;;;13.32;7.88;;;;;;;;;;5051667;28;20048;-57
2024/03/14 03:46:16;;;;;;;13.18;7.70;;;;;;;;;;5056326;28;20056;-53
2024/03/14 03:48:42;;;;;;;13.15;7.70;;;;;;;;;;5074122;28;20025;-54
2024/03/14 03:51:09;;;;;;;13.00;7.60;;;;;;;;;;5056094;28;20020;-54
2024/03/14 03:53:35;;;;;;;12.95;7.82;;;;;;;;;;5073373;28;20032;-54
2024/03/14 03:56:05;;;;;;;13.00;7.50;;;;;;;;;;5073944;28;20025;-56
2024/03/14 03:58:34;;;;;;;13.38;8.20;;;;;;;;;;5073946;28;20093;-53
2024/03/14 04:01:12;;;;;;;13.75;8.27;;;;;;;;;;5073815;28;20479;-53
2024/03/14 04:03:40;;;;;;;13.38;8.00;;;;;;;;;;5055050;28;20032;-56
2024/03/14 04:06:10;;;;;;;13.70;8.80;;;;;;;;;;5073613;28;20032;-52
2024/03/14 04:08:36;;;;;;;14.05;7.93;;;;;;;;;;5073768;28;20033;-56
2024/03/14 04:11:03;;;;;;;14.07;8.80;;;;;;;;;;5055708;28;20020;-53
2024/03/14 04:13:29;;;;;;;13.32;8.00;;;;;;;;;;5072937;28;20103;-53
2024/03/14 04:15:56;;;;;;;13.00;7.60;;;;;;;;;;5073597;28;20404;-56
2024/03/14 04:18:22;;;;;;;13.80;9.88;;;;;;;;;;5073589;28;20048;-53
2024/03/14 04:20:48;;;;;;;12.95;7.70;;;;;;;;;;5073453;28;20091;-54
2024/03/14 04:23:15;;;;;;;12.93;7.53;;;;;;;;;;5072655;28;20123;-57
2024/03/14 04:25:41;;;;;;;13.23;7.80;;;;;;;;;;5055439;28;20029;-51
2024/03/14 04:28:07;;;;;;;13.57;8.48;;;;;;;;;;5073331;28;20394;-51
2024/03/14 04:30:33;;;;;;;12.82;7.47;;;;;;;;;;5073263;28;20023;-53
2024/03/14 04:32:59;;;;;;;13.70;7.90;;;;;;;;;;5072451;28;20017;-55
2024/03/14 04:35:25;;;;;;;13.27;8.18;;;;;;;;;;5055095;28;20028;-57
2024/03/14 04:37:51;;;;;;;13.00;7.70;;;;;;;;;;5073140;28;20058;-52
2024/03/14 04:40:19;;;;;;;12.80;7.50;;;;;;;;;;5055591;28;20386;-54
2024/03/14 04:42:55;;;;;;;13.48;8.48;;;;;;;;;;5072012;28;20406;-53
2024/03/14 04:45:21;;;;;;;12.80;7.47;;;;;;;;;;5055402;28;20044;-52
2024/03/14 04:47:48;;;;;;;12.68;7.40;;;;;;;;;;5072971;28;20028;-52
2024/03/14 04:50:14;;;;;;;13.27;8.30;;;;;;;;;;5073194;28;20016;-54
2024/03/14 04:52:41;;;;;;;12.63;7.47;;;;;;;;;;5072750;28;20024;-50
2024/03/14 04:55:08;;;;;;;12.30;7.18;;;;;;;;;;5073017;28;20028;-53
2024/03/14 04:57:35;;;;;;;12.73;7.70;;;;;;;;;;5054428;28;20024;-51
2024/03/14 05:00:03;;;;;;;12.38;7.22;;;;;;;;;;5055029;28;20644;-53
2024/03/14 05:02:29;;;;;;;14.50;8.77;;;;;;;;;;5071935;28;20020;-55
2024/03/14 05:04:59;;;;;;;13.23;7.75;;;;;;;;;;5072731;28;20510;-55
2024/03/14 05:07:28;;;;;;;13.25;7.88;;;;;;;;;;5072922;28;20474;-50
2024/03/14 05:09:54;;;;;;;14.68;10.95;;;;;;;;;;5073056;28;20028;-51
2024/03/14 05:12:20;;;;;;;13.38;7.93;;;;;;;;;;5071956;28;20021;-56
2024/03/14 05:14:46;;;;;;;13.25;7.85;;;;;;;;;;5072537;28;20528;-47
2024/03/14 05:17:13;;;;;;;13.40;8.00;;;;;;;;;;5072627;28;20021;-54
2024/03/14 05:19:39;;;;;;;13.27;8.10;;;;;;;;;;5054659;28;20121;-51
2024/03/14 05:22:05;;;;;;;14.10;8.77;;;;;;;;;;5072296;28;20490;-52
2024/03/14 05:24:31;;;;;;;13.90;8.70;;;;;;;;;;5071836;28;20032;-51
2024/03/14 05:26:59;;;;;;;13.40;8.13;;;;;;;;;;5054719;28;20024;-54
2024/03/14 05:29:25;;;;;;;;;;;;;;;;;;5073198;28;20043;-53
2024/03/14 05:31:51;;;;;;;13.27;8.05;;;;;;;;;;5054186;28;19904;-50
2024/03/14 05:34:17;;;;;;;15.45;8.50;;;;;;;;;;5053937;28;20029;-55
2024/03/14 05:36:43;;;;;;;13.43;8.20;;;;;;;;;;5054233;28;20031;-53
2024/03/14 05:39:09;;;;;;;14.00;9.20;;;;;;;;;;5072276;28;20024;-55
2024/03/14 05:41:35;;;;;;;14.20;9.35;;;;;;;;;;5071650;28;20029;-49
2024/03/14 05:44:02;;;;;;;13.50;8.30;;;;;;;;;;5071085;28;20123;-54
2024/03/14 05:46:28;;;;;;;13.50;8.43;;;;;;;;;;5071808;28;20044;-52
2024/03/14 05:48:54;;;;;;;13.50;8.30;;;;;;;;;;5071812;28;20055;-54
2024/03/14 05:51:20;;;;;;;13.50;8.40;;;;;;;;;;5071310;28;20024;-51
2024/03/14 05:53:46;;;;;;;13.35;8.10;;;;;;;;;;5058009;28;20025;-55
2024/03/14 05:56:12;;;;;;;13.48;8.27;;;;;;;;;;5052546;28;20159;-52
2024/03/14 05:58:39;;;;;;;13.32;8.30;;;;;;;;;;5051898;28;20509;-50
2024/03/14 06:01:06;;;;;;;13.32;8.10;;;;;;;;;;5051510;28;20078;-55
2024/03/14 06:03:33;;;;;;;13.43;8.02;;;;;;;;;;5050948;28;20052;-52
2024/03/14 06:05:59;;;;;;;13.27;7.90;;;;;;;;;;5051567;28;20055;-55
2024/03/14 06:08:27;;;;;;;13.10;7.63;;;;;;;;;;5049848;28;20029;-52
2024/03/14 06:10:53;;;;;;;13.23;7.82;;;;;;;;;;5051569;28;20025;-54
2024/03/14 06:13:18;;;;;;;13.13;7.70;;;;;;;;;;5051070;28;20117;-56
2024/03/14 06:15:45;;;;;;;13.82;8.82;;;;;;;;;;5050170;28;20129;-58
2024/03/14 06:18:11;;;;;;;13.30;7.90;;;;;;;;;;5051233;28;20372;-52
2024/03/14 06:20:37;;;;;;;14.07;9.85;;;;;;;;;;5051096;28;20025;-51
2024/03/14 06:23:03;;;;;;;13.77;8.27;;;;;;;;;;5050106;28;20072;-55
2024/03/14 06:25:29;;;;;;;13.27;7.90;;;;;;;;;;5050800;28;20032;-50
2024/03/14 06:27:55;;;;;;;13.50;8.50;;;;;;;;;;5050879;28;20021;-55
2024/03/14 06:30:22;;;;;;;13.43;8.10;;;;;;;;;;5051636;28;20025;-54
2024/03/14 06:32:49;;;;;;;13.45;8.15;;;;;;;;;;5070122;28;20016;-55
2024/03/14 06:35:16;;;;;;;13.10;7.68;;;;;;;;;;5070991;28;20545;-55
2024/03/14 06:37:42;;;;;;;12.95;7.63;;;;;;;;;;5071280;28;20048;-56
2024/03/14 06:40:08;;;;;;;13.40;8.07;;;;;;;;;;5057603;28;20032;-52
2024/03/14 06:42:34;;;;;;;13.35;7.90;;;;;;;;;;5049919;28;20594;-55
2024/03/14 06:45:04;;;;;;;14.48;8.30;;;;;;;;;;5081253;22;20058;-52
2024/03/14 06:47:30;;;;;;;13.45;8.07;;;;;;;;;;5070102;28;20017;-51
2024/03/14 06:50:00;;;;;;;13.32;7.90;;;;;;;;;;5070033;28;20440;-55
2024/03/14 06:52:26;;;;;;;13.40;7.93;;;;;;;;;;5051329;28;20021;-54
2024/03/14 06:54:53;;;;;;;13.70;8.57;;;;;;;;;;5070157;28;20039;-53
2024/03/14 06:57:19;;;;;;;13.63;8.77;;;;;;;;;;5070228;28;20042;-55
2024/03/14 06:59:48;;;;;;;13.48;8.20;;;;;;;;;;5069842;28;20425;-51
2024/03/14 07:02:18;;;;;;;13.40;8.18;;;;;;;;;;5069988;28;20036;-50
2024/03/14 07:04:44;;;;;;;13.70;8.90;;;;;;;;;;5065442;28;20036;-48
2024/03/14 07:07:11;;;;;;;13.65;8.38;;;;;;;;;;5050050;28;20494;-51
2024/03/14 07:09:39;;;;;;;13.40;8.07;;;;;;;;;;5049896;28;20021;-50
2024/03/14 07:12:09;;;;;;;15.90;9.55;;;;;;;;;;5049481;28;20029;-50
2024/03/14 07:14:36;;;;;;;13.48;8.18;;;;;;;;;;5031554;28;20032;-55
2024/03/14 07:17:02;;;;;;;13.43;8.05;;;;;;;;;;5032011;28;20031;-52
2024/03/14 07:19:28;;;;;;;13.50;8.32;;;;;;;;;;5031332;28;20033;-53
2024/03/14 07:21:54;;;;;;;20.27;11.00;;;;;;;;;;5049793;28;20060;-52
2024/03/14 07:24:25;;;;;;;13.50;8.27;;;;;;;;;;5049386;28;20064;-55
2024/03/14 07:26:54;;;;;;;13.50;8.38;;;;;;;;;;5032081;28;20448;-54
2024/03/14 07:29:20;;;;;;;13.55;8.60;;;;;;;;;;5049824;28;20475;-51
2024/03/14 07:31:47;;;;;;;13.40;8.07;;;;;;;;;;5049204;28;20029;-52
2024/03/14 07:34:15;;;;;;;13.52;8.50;;;;;;;;;;5049641;28;20021;-51
2024/03/14 07:36:41;;;;;;;13.63;8.82;;;;;;;;;;5065325;28;20380;-54
2024/03/14 07:39:11;;;;;;;13.68;8.70;;;;;;;;;;5049609;28;20025;-51
2024/03/14 07:41:41;;;;;;;13.60;8.77;;;;;;;;;;5049563;28;20025;-48
2024/03/14 07:44:07;;;;;;;13.52;8.50;;;;;;;;;;5048985;28;20376;-54
2024/03/14 07:46:33;;;;;;;13.57;8.68;;;;;;;;;;5049650;28;20025;-54
2024/03/14 07:48:59;;;;;;;13.82;8.85;;;;;;;;;;5049575;28;20078;-51
2024/03/14 07:51:27;;;;;;;13.52;8.43;;;;;;;;;;5049131;28;20021;-50
2024/03/14 07:53:53;;;;;;;13.32;7.85;;;;;;;;;;5048774;28;20028;-50
2024/03/14 07:56:21;;;;;;;13.48;8.20;;;;;;;;;;5049785;28;20029;-54
2024/03/14 07:58:47;;;;;;;13.40;8.00;;;;;;;;;;5049302;28;20048;-55
2024/03/14 08:01:16;;;;;;;13.43;8.30;;;;;;;;;;5048868;28;20028;-55
2024/03/14 08:03:42;;;;;;;13.80;8.40;;;;;;;;;;5048828;28;20040;-51
2024/03/14 08:06:10;;;;;;;14.10;8.75;;;;;;;;;;5058257;28;20021;-52
2024/03/14 08:08:36;;;;;;;13.48;8.32;;;;;;;;;;5069193;28;20020;-52
2024/03/14 08:11:11;;;;;;;14.27;9.50;;;;;;;;;;5069128;28;20113;-51
2024/03/14 08:13:39;;;;;;;13.48;8.27;;;;;;;;;;5068483;28;20016;-54
2024/03/14 08:16:14;;;;;;;15.20;8.55;;;;;;;;;;5051220;28;20024;-55
2024/03/14 08:18:43;;;;;;;13.30;8.00;;;;;;;;;;5069503;28;20032;-53
2024/03/14 08:21:16;;;;;;;13.70;8.50;;;;;;;;;;5069351;28;20113;-51
2024/03/14 08:23:43;;;;;;;13.35;8.15;;;;;;;;;;5068847;28;20025;-51
2024/03/14 08:26:09;;;;;;;14.35;9.48;;;;;;;;;;5069293;28;20024;-51
2024/03/14 08:28:41;;;;;;;14.60;9.23;;;;;;;;;;5051294;28;20033;-51
2024/03/14 08:31:14;;;;;;;14.10;9.68;;;;;;;;;;5069355;28;20387;-50
2024/03/14 08:33:40;;;;;;;13.50;8.30;;;;;;;;;;5032251;28;20360;-54
2024/03/14 08:36:06;;;;;;;13.52;8.40;;;;;;;;;;5033123;28;20025;-49
2024/03/14 08:38:34;;;;;;;13.70;8.75;;;;;;;;;;5033415;28;20053;-52
2024/03/14 08:41:02;;;;;;;13.70;8.55;;;;;;;;;;5033007;28;20018;-54
2024/03/14 08:43:28;;;;;;;13.48;8.27;;;;;;;;;;5013988;28;20124;-52
2024/03/14 08:45:55;;;;;;;17.40;10.55;;;;;;;;;;5033052;28;20120;-50
2024/03/14 08:48:21;;;;;;;13.77;8.70;;;;;;;;;;5033044;28;20021;-52
2024/03/14 08:50:47;;;;;;;13.55;8.50;;;;;;;;;;5032539;28;20033;-54
2024/03/14 08:53:15;;;;;;;13.48;8.50;;;;;;;;;;5031963;28;20036;-51
2024/03/14 08:55:52;;;;;;;13.77;8.85;;;;;;;;;;5033105;28;20345;-49
2024/03/14 08:58:18;;;;;;;13.75;8.98;;;;;;;;;;5054885;28;20025;-53
2024/03/14 09:00:44;;;;;;;14.30;9.82;;;;;;;;;;5056076;28;20023;-54
2024/03/14 09:03:10;;;;;;;14.10;8.75;;;;;;;;;;5071669;28;20100;-48
2024/03/14 09:05:37;;;;;;;14.30;9.35;;;;;;;;;;5072519;28;20098;-54
2024/03/14 09:08:04;;;;;;;13.73;9.10;;;;;;;;;;5072581;28;20103;-54
2024/03/14 09:10:33;;;;;;;13.73;9.00;;;;;;;;;;5072110;28;20029;-51
2024/03/14 09:12:59;;;;;;;13.75;9.15;;;;;;;;;;5071323;28;20028;-49
2024/03/14 09:15:25;;;;;;;14.10;10.27;;;;;;;;;;5052784;28;20060;-52
2024/03/14 09:17:52;;;;;;;13.68;9.10;;;;;;;;;;5051670;28;20029;-52
2024/03/14 09:20:20;;;;;;;14.10;9.10;;;;;;;;;;5052003;28;20028;-51
2024/03/14 09:22:53;;;;;;;13.52;8.52;;;;;;;;;;5051311;28;20513;-49
2024/03/14 09:25:20;;;;;;;13.60;9.02;;;;;;;;;;5052039;28;20067;-52
2024/03/14 09:27:46;;;;;;;13.80;9.25;;;;;;;;;;5051892;28;20025;-52
2024/03/14 09:30:13;;;;;;;13.65;8.88;;;;;;;;;;5051723;28;20031;-50
2024/03/14 09:32:42;;;;;;;13.75;8.95;;;;;;;;;;5070961;28;20134;-48
2024/03/14 09:35:12;;;;;;;13.80;9.25;;;;;;;;;;5071803;28;20052;-53
2024/03/14 09:37:38;;;;;;;13.60;8.80;;;;;;;;;;5071577;28;20107;-49
2024/03/14 09:40:06;;;;;;;13.70;8.95;;;;;;;;;;5072162;28;20055;-51
2024/03/14 09:42:32;;;;;;;14.63;9.75;;;;;;;;;;5070665;28;20021;-53
2024/03/14 09:45:00;;;;;;;14.52;10.10;;;;;;;;;;5071613;28;20048;-50
2024/03/14 09:47:29;;;;;;;13.77;9.20;;;;;;;;;;5072271;28;20052;-49
2024/03/14 09:49:55;;;;;;;13.68;8.82;;;;;;;;;;5071934;28;20021;-47
2024/03/14 09:52:21;;;;;;;13.77;8.80;;;;;;;;;;5070935;28;20382;-50
2024/03/14 09:54:49;;;;;;;14.00;8.93;;;;;;;;;;5071716;28;20119;-51
2024/03/14 09:57:16;;;;;;;13.80;8.90;;;;;;;;;;5068964;28;20111;-53
2024/03/14 09:59:42;;;;;;;13.68;8.85;;;;;;;;;;5031784;28;20627;-46
2024/03/14 10:02:15;;;;;;;14.32;9.25;;;;;;;;;;5031031;28;20458;-48
2024/03/14 10:04:43;;;;;;;13.68;8.93;;;;;;;;;;5013492;28;20037;-54
2024/03/14 10:07:09;;;;;;;13.68;8.88;;;;;;;;;;5031307;28;20022;-49
2024/03/14 10:09:35;;;;;;;13.50;8.60;;;;;;;;;;5031374;28;20376;-53
2024/03/14 10:12:02;;;;;;;13.65;8.90;;;;;;;;;;5013101;28;20111;-53
2024/03/14 10:14:32;;;;;;;13.55;8.52;;;;;;;;;;5012927;28;20029;-49
2024/03/14 10:16:58;;;;;;;13.43;8.13;;;;;;;;;;5031203;28;20049;-52
2024/03/14 10:19:33;;;;;;;13.50;8.55;;;;;;;;;;5031050;28;20040;-51
2024/03/14 10:22:01;;;;;;;13.60;8.88;;;;;;;;;;5030785;28;20037;-56
2024/03/14 10:24:27;;;;;;;13.60;8.50;;;;;;;;;;5030245;28;20022;-53
2024/03/14 10:26:55;;;;;;;13.60;8.68;;;;;;;;;;5030680;28;20028;-54
2024/03/14 10:29:22;;;;;;;13.57;8.70;;;;;;;;;;5029753;28;20516;-54
2024/03/14 10:31:48;;;;;;;13.45;8.40;;;;;;;;;;5022006;28;20028;-56
2024/03/14 10:34:15;;;;;;;13.45;8.40;;;;;;;;;;5068902;28;20052;-53
2024/03/14 10:36:41;;;;;;;13.55;8.65;;;;;;;;;;5070652;28;20398;-51
2024/03/14 10:39:14;;;;;;;13.80;8.80;;;;;;;;;;5070405;28;20367;-53
2024/03/14 10:41:44;;;;;;;13.80;9.40;;;;;;;;;;5069356;28;20046;-52
2024/03/14 10:44:14;;;;;;;13.68;8.85;;;;;;;;;;5070662;28;20409;-56
2024/03/14 10:46:41;;;;;;;13.80;9.13;;;;;;;;;;5071108;28;20479;-55
2024/03/14 10:49:07;;;;;;;13.68;8.80;;;;;;;;;;5070681;28;20024;-53
2024/03/14 10:51:34;;;;;;;13.63;8.70;;;;;;;;;;5070546;28;20074;-54
2024/03/14 10:54:01;;;;;;;13.77;9.18;;;;;;;;;;5069165;28;20023;-50
2024/03/14 10:56:27;;;;;;;13.73;9.00;;;;;;;;;;5052277;28;20013;-53
2024/03/14 10:58:54;;;;;;;13.73;8.90;;;;;;;;;;5045026;28;20084;-54
2024/03/14 11:01:21;;;;;;;13.80;9.15;;;;;;;;;;5028649;28;20491;-52
2024/03/14 11:03:48;;;;;;;13.68;8.75;;;;;;;;;;5028253;28;20044;-51
2024/03/14 11:06:18;;;;;;;13.95;9.20;;;;;;;;;;5028692;28;20014;-55
2024/03/14 11:08:46;;;;;;;14.00;9.05;;;;;;;;;;5028712;28;20227;-52
2024/03/14 11:11:19;;;;;;;13.60;8.53;;;;;;;;;;5028061;28;20030;-52
2024/03/14 11:13:50;;;;;;;13.50;8.38;;;;;;;;;;5028994;28;20064;-55
2024/03/14 11:16:17;;;;;;;19.73;10.82;;;;;;;;;;5030186;28;20480;-54
2024/03/14 11:18:52;;;;;;;13.50;8.60;;;;;;;;;;5030197;28;20480;-54
2024/03/14 11:21:19;;;;;;;14.32;10.20;;;;;;;;;;5029720;28;20052;-49
2024/03/14 11:23:46;;;;;;;13.63;8.85;;;;;;;;;;5029231;28;20447;-52
2024/03/14 11:26:14;;;;;;;14.23;8.90;;;;;;;;;;5029886;28;20029;-54
2024/03/14 11:28:41;;;;;;;13.52;8.40;;;;;;;;;;5029756;28;20018;-50
2024/03/14 11:31:07;;;;;;;13.63;8.85;;;;;;;;;;5029876;28;20052;-54
2024/03/14 11:33:33;;;;;;;13.98;9.70;;;;;;;;;;5011120;28;20075;-51
2024/03/14 11:35:59;;;;;;;13.80;9.10;;;;;;;;;;5029922;28;20291;-50
2024/03/14 11:38:28;;;;;;;14.57;10.93;;;;;;;;;;5029592;28;20353;-53
2024/03/14 11:40:55;;;;;;;14.63;10.70;;;;;;;;;;5028436;28;20087;-54
2024/03/14 11:43:22;;;;;;;13.98;9.90;;;;;;;;;;5028776;28;20091;-52
2024/03/14 11:45:58;;;;;;;14.20;10.20;;;;;;;;;;5011856;28;20051;-55
2024/03/14 11:48:25;;;;;;;14.00;9.90;;;;;;;;;;5029305;28;20099;-54
2024/03/14 11:50:52;;;;;;;15.07;11.07;;;;;;;;;;5029545;28;20026;-48
2024/03/14 11:53:20;;;;;;;14.07;10.10;;;;;;;;;;5028886;28;20036;-52
2024/03/14 11:55:46;;;;;;;13.90;9.48;;;;;;;;;;5029721;28;20071;-51
2024/03/14 11:58:14;;;;;;;13.93;9.60;;;;;;;;;;5029127;28;20033;-54
2024/03/14 12:00:40;;;;;;;14.60;10.90;;;;;;;;;;5029493;28;20215;-52
2024/03/14 12:03:07;;;;;;;14.10;10.20;;;;;;;;;;5028377;28;20040;-52
2024/03/14 12:05:37;;;;;;;14.38;10.57;;;;;;;;;;5030714;28;20120;-50
2024/03/14 12:08:06;;;;;;;14.27;10.65;;;;;;;;;;5033987;28;20014;-54
2024/03/14 12:10:32;;;;;;;14.20;10.20;;;;;;;;;;5015769;28;20021;-55
2024/03/14 12:12:59;;;;;;;14.20;10.32;;;;;;;;;;5015382;28;20027;-50
2024/03/14 12:15:25;;;;;;;14.02;9.98;;;;;;;;;;5033304;28;20376;-53
2024/03/14 12:17:58;;;;;;;14.30;10.70;;;;;;;;;;5015452;28;20032;-52
2024/03/14 12:20:28;;;;;;;14.20;10.30;;;;;;;;;;5033132;28;20029;-51
2024/03/14 12:22:57;;;;;;;15.20;12.05;;;;;;;;;;5032903;28;20021;-53
2024/03/14 12:25:26;;;;;;;14.10;10.20;;;;;;;;;;5033491;28;20029;-50
2024/03/14 12:27:52;;;;;;;14.20;10.40;;;;;;;;;;5015357;28;20431;-52
2024/03/14 12:30:20;;;;;;;14.07;10.05;;;;;;;;;;5033095;28;20026;-53
2024/03/14 12:32:54;;;;;;;14.15;10.25;;;;;;;;;;5014652;28;20025;-52
2024/03/14 12:35:21;;;;;;;14.27;10.50;;;;;;;;;;5032742;28;20033;-52
2024/03/14 12:37:52;;;;;;;14.27;10.52;;;;;;;;;;5032655;28;20423;-53
2024/03/14 12:40:19;;;;;;;14.35;10.60;;;;;;;;;;5031726;28;20108;-54
2024/03/14 12:42:48;;;;;;;14.32;10.93;;;;;;;;;;5032212;28;20079;-54
2024/03/14 12:45:15;;;;;;;14.30;10.60;;;;;;;;;;5062473;22;20052;-52
2024/03/14 12:47:47;;;;;;;15.13;11.13;;;;;;;;;;5053469;28;20041;-53
2024/03/14 12:50:20;;;;;;;14.30;10.60;;;;;;;;;;5053815;28;20025;-55
2024/03/14 12:52:46;;;;;;;14.30;10.52;;;;;;;;;;5053466;28;20495;-51
2024/03/14 12:55:16;;;;;;;14.30;10.80;;;;;;;;;;5053395;28;20027;-54
2024/03/14 12:57:45;;;;;;;14.50;11.18;;;;;;;;;;5053339;28;20399;-52
2024/03/14 13:00:17;;;;;;;14.52;11.18;;;;;;;;;;5052819;28;20104;-55
2024/03/14 13:02:45;;;;;;;14.30;10.80;;;;;;;;;;5052038;28;20067;-51
2024/03/14 13:05:14;;;;;;;14.93;11.70;;;;;;;;;;5052739;28;20506;-51
2024/03/14 13:07:41;;;;;;;14.40;10.90;;;;;;;;;;5034606;28;20097;-54
2024/03/14 13:10:11;;;;;;;14.60;11.02;;;;;;;;;;5052405;28;20017;-51
2024/03/14 13:12:40;;;;;;;14.50;11.13;;;;;;;;;;5051932;28;20028;-53
2024/03/14 13:15:14;;;;;;;14.60;11.45;;;;;;;;;;5052523;28;20028;-53
2024/03/14 13:17:47;;;;;;;14.60;11.50;;;;;;;;;;5051991;28;20299;-49
2024/03/14 13:20:14;;;;;;;14.65;11.48;;;;;;;;;;5035235;28;20033;-53
2024/03/14 13:22:41;;;;;;;14.55;11.30;;;;;;;;;;5052832;28;20020;-50
2024/03/14 13:25:11;;;;;;;17.08;11.70;;;;;;;;;;5052771;28;20059;-55
2024/03/14 13:27:37;;;;;;;14.60;11.52;;;;;;;;;;5052100;28;20025;-52
2024/03/14 13:30:08;;;;;;;14.60;11.60;;;;;;;;;;5052403;28;20021;-48
2024/03/14 13:32:37;;;;;;;14.60;11.40;;;;;;;;;;5051261;28;20515;-51
2024/03/14 13:35:05;;;;;;;14.60;11.43;;;;;;;;;;5052364;28;20037;-54
2024/03/14 13:37:31;;;;;;;14.70;11.23;;;;;;;;;;5033828;28;20403;-52
2024/03/14 13:39:57;;;;;;;14.52;11.32;;;;;;;;;;5050672;28;20044;-51
2024/03/14 13:42:24;;;;;;;14.43;11.10;;;;;;;;;;5032307;28;20025;-56
2024/03/14 13:44:51;;;;;;;14.55;11.32;;;;;;;;;;5039850;28;20029;-55
2024/03/14 13:47:20;;;;;;;14.70;11.60;;;;;;;;;;5041551;28;20025;-55
2024/03/14 13:49:47;;;;;;;14.60;11.50;;;;;;;;;;5042507;28;20487;-53
2024/03/14 13:52:14;;;;;;;14.57;11.30;;;;;;;;;;5048840;28;20376;-53
2024/03/14 13:54:41;;;;;;;14.60;11.55;;;;;;;;;;5056315;28;20038;-51
2024/03/14 13:57:11;;;;;;;14.57;11.30;;;;;;;;;;5046120;28;20082;-55
2024/03/14 13:59:39;;;;;;;14.38;11.05;;;;;;;;;;5049114;28;20891;-54
2024/03/14 14:02:08;;;;;;;14.60;11.35;;;;;;;;;;5057634;28;20033;-54
2024/03/14 14:04:34;;;;;;;14.48;10.93;;;;;;;;;;5042445;28;20109;-54
2024/03/14 14:07:00;;;;;;;14.50;11.25;;;;;;;;;;5050913;28;20029;-53
2024/03/14 14:09:27;;;;;;;14.60;11.52;;;;;;;;;;5051026;28;20013;-55
2024/03/14 14:11:54;;;;;;;14.50;11.20;;;;;;;;;;5033464;28;20021;-53
2024/03/14 14:14:22;;;;;;;14.57;11.40;;;;;;;;;;5049024;28;20116;-50
2024/03/14 14:16:48;;;;;;;14.50;11.20;;;;;;;;;;5021539;28;20033;-55
2024/03/14 14:19:14;;;;;;;14.60;11.50;;;;;;;;;;5035715;28;20076;-54
2024/03/14 14:21:40;;;;;;;14.70;11.65;;;;;;;;;;5047529;28;20021;-53
2024/03/14 14:24:07;;;;;;;14.77;11.82;;;;;;;;;;5050559;28;20021;-52
2024/03/14 14:26:33;;;;;;;14.70;11.70;;;;;;;;;;5051196;28;20505;-49
2024/03/14 14:28:59;;;;;;;14.70;11.80;;;;;;;;;;5033238;28;20028;-50
2024/03/14 14:31:27;;;;;;;14.80;11.93;;;;;;;;;;5033692;28;20025;-54